sensor_id;sensor_type;location;lat;lon;timestamp;P1;durP1;ratioP1;P2;durP2;ratioP2
70433;SDS011;57876;47.792;12.960;2022-09-21T00:00:45;3.10;;;0.50;;
70433;SDS011;57876;47.792;12.960;2022-09-21T00:03:09;3.47;;;0.63;;
70433;SDS011;57876;47.792;12.960;2022-09-21T00:05:34;2.90;;;0.52;;
70433;SDS011;57876;47.792;12.960;2022-09-21T00:07:59;3.00;;;0.60;;
70433;SDS011;57876;47.792;12.960;2022-09-21T00:10:28;2.50;;;0.40;;
70433;SDS011;57876;47.792;12.960;2022-09-21T00:12:53;3.20;;;0.50;;
70433;SDS011;57876;47.792;12.960;2022-09-21T00:15:19;3.03;;;0.50;;
70433;SDS011;57876;47.792;12.960;2022-09-21T00:17:44;3.83;;;0.70;;
70433;SDS011;57876;47.792;12.960;2022-09-21T00:20:10;3.13;;;0.65;;
70433;SDS011;57876;47.792;12.960;2022-09-21T00:22:35;3.43;;;0.70;;
70433;SDS011;57876;47.792;12.960;2022-09-21T00:25:00;2.83;;;0.50;;
70433;SDS011;57876;47.792;12.960;2022-09-21T00:27:28;2.60;;;0.50;;
70433;SDS011;57876;47.792;12.960;2022-09-21T00:29:53;2.63;;;0.47;;
70433;SDS011;57876;47.792;12.960;2022-09-21T00:32:18;2.70;;;0.52;;
70433;SDS011;57876;47.792;12.960;2022-09-21T00:34:43;3.60;;;0.60;;
70433;SDS011;57876;47.792;12.960;2022-09-21T00:37:07;3.20;;;0.67;;
70433;SDS011;57876;47.792;12.960;2022-09-21T00:39:32;2.93;;;0.60;;
70433;SDS011;57876;47.792;12.960;2022-09-21T00:41:56;2.70;;;0.50;;
70433;SDS011;57876;47.792;12.960;2022-09-21T00:46:45;2.70;;;0.50;;
70433;SDS011;57876;47.792;12.960;2022-09-21T00:49:12;2.60;;;0.50;;
70433;SDS011;57876;47.792;12.960;2022-09-21T00:51:37;2.47;;;0.50;;
70433;SDS011;57876;47.792;12.960;2022-09-21T00:54:06;2.72;;;0.60;;
70433;SDS011;57876;47.792;12.960;2022-09-21T00:56:35;2.67;;;0.50;;
70433;SDS011;57876;47.792;12.960;2022-09-21T00:59:00;2.80;;;0.50;;
70433;SDS011;57876;47.792;12.960;2022-09-21T01:01:26;2.85;;;0.50;;
70433;SDS011;57876;47.792;12.960;2022-09-21T01:03:51;2.47;;;0.40;;
70433;SDS011;57876;47.792;12.960;2022-09-21T01:06:20;2.70;;;0.50;;
70433;SDS011;57876;47.792;12.960;2022-09-21T01:08:46;3.53;;;0.60;;
70433;SDS011;57876;47.792;12.960;2022-09-21T01:16:51;3.08;;;0.50;;
70433;SDS011;57876;47.792;12.960;2022-09-21T01:31:25;2.55;;;0.50;;
70433;SDS011;57876;47.792;12.960;2022-09-21T01:33:56;2.70;;;0.50;;
70433;SDS011;57876;47.792;12.960;2022-09-21T01:36:24;2.75;;;0.40;;
70433;SDS011;57876;47.792;12.960;2022-09-21T01:39:09;2.17;;;0.40;;
70433;SDS011;57876;47.792;12.960;2022-09-21T01:41:36;2.45;;;0.50;;
70433;SDS011;57876;47.792;12.960;2022-09-21T01:44:05;3.10;;;0.50;;
70433;SDS011;57876;47.792;12.960;2022-09-21T01:46:31;2.70;;;0.50;;
70433;SDS011;57876;47.792;12.960;2022-09-21T01:48:59;2.33;;;0.45;;
70433;SDS011;57876;47.792;12.960;2022-09-21T01:51:27;2.73;;;0.50;;
70433;SDS011;57876;47.792;12.960;2022-09-21T01:54:00;1.92;;;0.40;;
70433;SDS011;57876;47.792;12.960;2022-09-21T01:56:34;2.15;;;0.43;;
70433;SDS011;57876;47.792;12.960;2022-09-21T01:59:08;2.93;;;0.50;;
70433;SDS011;57876;47.792;12.960;2022-09-21T02:01:40;2.08;;;0.40;;
70433;SDS011;57876;47.792;12.960;2022-09-21T02:04:16;2.67;;;0.50;;
70433;SDS011;57876;47.792;12.960;2022-09-21T02:06:42;2.33;;;0.30;;
70433;SDS011;57876;47.792;12.960;2022-09-21T02:09:08;2.63;;;0.50;;
70433;SDS011;57876;47.792;12.960;2022-09-21T02:11:34;2.92;;;0.50;;
70433;SDS011;57876;47.792;12.960;2022-09-21T02:14:05;1.92;;;0.30;;
70433;SDS011;57876;47.792;12.960;2022-09-21T02:16:36;2.10;;;0.40;;
70433;SDS011;57876;47.792;12.960;2022-09-21T02:22:25;2.50;;;0.40;;
70433;SDS011;57876;47.792;12.960;2022-09-21T02:24:29;2.55;;;0.52;;
70433;SDS011;57876;47.792;12.960;2022-09-21T02:34:52;2.60;;;0.50;;
70433;SDS011;57876;47.792;12.960;2022-09-21T02:43:09;2.92;;;0.50;;
70433;SDS011;57876;47.792;12.960;2022-09-21T02:45:45;2.45;;;0.50;;
70433;SDS011;57876;47.792;12.960;2022-09-21T02:48:15;3.10;;;0.50;;
70433;SDS011;57876;47.792;12.960;2022-09-21T02:50:49;2.45;;;0.45;;
70433;SDS011;57876;47.792;12.960;2022-09-21T02:53:18;2.60;;;0.57;;
70433;SDS011;57876;47.792;12.960;2022-09-21T02:55:46;2.45;;;0.40;;
70433;SDS011;57876;47.792;12.960;2022-09-21T02:58:12;3.00;;;0.50;;
70433;SDS011;57876;47.792;12.960;2022-09-21T03:00:39;2.57;;;0.50;;
70433;SDS011;57876;47.792;12.960;2022-09-21T03:03:22;2.80;;;0.60;;
70433;SDS011;57876;47.792;12.960;2022-09-21T03:05:48;2.20;;;0.40;;
70433;SDS011;57876;47.792;12.960;2022-09-21T03:08:15;2.42;;;0.43;;
70433;SDS011;57876;47.792;12.960;2022-09-21T03:10:40;3.47;;;0.50;;
70433;SDS011;57876;47.792;12.960;2022-09-21T03:13:06;2.37;;;0.40;;
70433;SDS011;57876;47.792;12.960;2022-09-21T03:15:32;2.33;;;0.43;;
70433;SDS011;57876;47.792;12.960;2022-09-21T03:17:56;2.03;;;0.33;;
70433;SDS011;57876;47.792;12.960;2022-09-21T03:20:20;2.70;;;0.50;;
70433;SDS011;57876;47.792;12.960;2022-09-21T03:22:45;2.20;;;0.47;;
70433;SDS011;57876;47.792;12.960;2022-09-21T03:25:09;2.30;;;0.40;;
70433;SDS011;57876;47.792;12.960;2022-09-21T03:27:36;2.67;;;0.50;;
70433;SDS011;57876;47.792;12.960;2022-09-21T03:30:00;2.10;;;0.40;;
70433;SDS011;57876;47.792;12.960;2022-09-21T03:32:24;2.43;;;0.50;;
70433;SDS011;57876;47.792;12.960;2022-09-21T03:34:49;2.67;;;0.55;;
70433;SDS011;57876;47.792;12.960;2022-09-21T03:37:14;2.83;;;0.60;;
70433;SDS011;57876;47.792;12.960;2022-09-21T03:39:39;3.17;;;0.60;;
70433;SDS011;57876;47.792;12.960;2022-09-21T03:42:03;2.63;;;0.40;;
70433;SDS011;57876;47.792;12.960;2022-09-21T03:44:28;2.87;;;0.50;;
70433;SDS011;57876;47.792;12.960;2022-09-21T03:46:52;2.58;;;0.57;;
70433;SDS011;57876;47.792;12.960;2022-09-21T03:49:17;2.10;;;0.40;;
70433;SDS011;57876;47.792;12.960;2022-09-21T03:51:42;3.00;;;0.52;;
70433;SDS011;57876;47.792;12.960;2022-09-21T03:54:07;1.90;;;0.33;;
70433;SDS011;57876;47.792;12.960;2022-09-21T03:56:32;2.15;;;0.40;;
70433;SDS011;57876;47.792;12.960;2022-09-21T03:58:56;2.40;;;0.50;;
70433;SDS011;57876;47.792;12.960;2022-09-21T04:01:20;2.47;;;0.40;;
70433;SDS011;57876;47.792;12.960;2022-09-21T04:03:45;2.63;;;0.40;;
70433;SDS011;57876;47.792;12.960;2022-09-21T04:06:10;2.50;;;0.40;;
70433;SDS011;57876;47.792;12.960;2022-09-21T04:08:35;2.63;;;0.50;;
70433;SDS011;57876;47.792;12.960;2022-09-21T04:11:00;2.60;;;0.50;;
70433;SDS011;57876;47.792;12.960;2022-09-21T04:13:25;2.88;;;0.60;;
70433;SDS011;57876;47.792;12.960;2022-09-21T04:15:49;2.33;;;0.40;;
70433;SDS011;57876;47.792;12.960;2022-09-21T04:18:14;2.17;;;0.40;;
70433;SDS011;57876;47.792;12.960;2022-09-21T04:20:38;2.90;;;0.50;;
70433;SDS011;57876;47.792;12.960;2022-09-21T04:23:02;2.92;;;0.50;;
70433;SDS011;57876;47.792;12.960;2022-09-21T04:25:27;1.73;;;0.40;;
70433;SDS011;57876;47.792;12.960;2022-09-21T04:27:51;2.87;;;0.40;;
70433;SDS011;57876;47.792;12.960;2022-09-21T04:30:16;1.90;;;0.30;;
70433;SDS011;57876;47.792;12.960;2022-09-21T04:32:40;2.10;;;0.30;;
70433;SDS011;57876;47.792;12.960;2022-09-21T04:35:05;2.37;;;0.40;;
70433;SDS011;57876;47.792;12.960;2022-09-21T04:37:30;2.30;;;0.40;;
70433;SDS011;57876;47.792;12.960;2022-09-21T04:39:54;2.57;;;0.47;;
70433;SDS011;57876;47.792;12.960;2022-09-21T04:42:18;2.50;;;0.50;;
70433;SDS011;57876;47.792;12.960;2022-09-21T04:44:43;2.53;;;0.47;;
70433;SDS011;57876;47.792;12.960;2022-09-21T04:47:07;2.53;;;0.50;;
70433;SDS011;57876;47.792;12.960;2022-09-21T04:49:32;2.23;;;0.40;;
70433;SDS011;57876;47.792;12.960;2022-09-21T04:51:56;2.53;;;0.50;;
70433;SDS011;57876;47.792;12.960;2022-09-21T04:54:21;2.53;;;0.43;;
70433;SDS011;57876;47.792;12.960;2022-09-21T04:56:45;2.73;;;0.60;;
70433;SDS011;57876;47.792;12.960;2022-09-21T04:59:10;2.47;;;0.50;;
70433;SDS011;57876;47.792;12.960;2022-09-21T05:01:34;2.60;;;0.47;;
70433;SDS011;57876;47.792;12.960;2022-09-21T05:03:58;2.33;;;0.40;;
70433;SDS011;57876;47.792;12.960;2022-09-21T05:06:25;2.65;;;0.55;;
70433;SDS011;57876;47.792;12.960;2022-09-21T05:08:49;3.20;;;0.50;;
70433;SDS011;57876;47.792;12.960;2022-09-21T05:11:32;3.00;;;0.60;;
70433;SDS011;57876;47.792;12.960;2022-09-21T05:13:57;3.10;;;0.60;;
70433;SDS011;57876;47.792;12.960;2022-09-21T05:16:21;2.80;;;0.50;;
70433;SDS011;57876;47.792;12.960;2022-09-21T05:18:46;3.17;;;0.60;;
70433;SDS011;57876;47.792;12.960;2022-09-21T05:21:11;2.40;;;0.40;;
70433;SDS011;57876;47.792;12.960;2022-09-21T05:23:36;2.85;;;0.60;;
70433;SDS011;57876;47.792;12.960;2022-09-21T05:26:01;2.83;;;0.50;;
70433;SDS011;57876;47.792;12.960;2022-09-21T05:28:25;2.72;;;0.50;;
70433;SDS011;57876;47.792;12.960;2022-09-21T05:31:02;3.10;;;0.60;;
70433;SDS011;57876;47.792;12.960;2022-09-21T05:33:34;2.50;;;0.50;;
70433;SDS011;57876;47.792;12.960;2022-09-21T05:38:33;2.10;;;0.40;;
70433;SDS011;57876;47.792;12.960;2022-09-21T05:40:57;3.10;;;0.60;;
70433;SDS011;57876;47.792;12.960;2022-09-21T05:43:22;3.15;;;0.55;;
70433;SDS011;57876;47.792;12.960;2022-09-21T05:45:49;3.20;;;0.60;;
70433;SDS011;57876;47.792;12.960;2022-09-21T05:56:05;3.40;;;0.67;;
70433;SDS011;57876;47.792;12.960;2022-09-21T05:58:41;3.50;;;0.70;;
70433;SDS011;57876;47.792;12.960;2022-09-21T06:03:43;3.67;;;0.80;;
70433;SDS011;57876;47.792;12.960;2022-09-21T06:06:11;2.92;;;0.57;;
70433;SDS011;57876;47.792;12.960;2022-09-21T06:08:35;2.90;;;0.60;;
70433;SDS011;57876;47.792;12.960;2022-09-21T06:11:00;3.07;;;0.50;;
70433;SDS011;57876;47.792;12.960;2022-09-21T06:13:24;3.63;;;0.80;;
70433;SDS011;57876;47.792;12.960;2022-09-21T06:15:49;2.90;;;0.50;;
70433;SDS011;57876;47.792;12.960;2022-09-21T06:18:13;3.73;;;0.60;;
70433;SDS011;57876;47.792;12.960;2022-09-21T06:20:38;4.00;;;0.63;;
70433;SDS011;57876;47.792;12.960;2022-09-21T06:23:03;2.67;;;0.60;;
70433;SDS011;57876;47.792;12.960;2022-09-21T06:25:28;3.95;;;0.70;;
70433;SDS011;57876;47.792;12.960;2022-09-21T06:27:53;3.40;;;0.60;;
70433;SDS011;57876;47.792;12.960;2022-09-21T06:30:17;3.80;;;0.70;;
70433;SDS011;57876;47.792;12.960;2022-09-21T06:32:42;2.80;;;0.57;;
70433;SDS011;57876;47.792;12.960;2022-09-21T06:35:06;3.67;;;0.60;;
70433;SDS011;57876;47.792;12.960;2022-09-21T06:37:31;3.22;;;0.60;;
70433;SDS011;57876;47.792;12.960;2022-09-21T06:39:55;3.27;;;0.67;;
70433;SDS011;57876;47.792;12.960;2022-09-21T06:42:20;2.97;;;0.70;;
70433;SDS011;57876;47.792;12.960;2022-09-21T06:44:44;3.70;;;0.77;;
70433;SDS011;57876;47.792;12.960;2022-09-21T06:47:08;3.20;;;0.63;;
70433;SDS011;57876;47.792;12.960;2022-09-21T06:49:33;3.42;;;0.60;;
70433;SDS011;57876;47.792;12.960;2022-09-21T06:51:57;3.10;;;0.57;;
70433;SDS011;57876;47.792;12.960;2022-09-21T06:54:21;3.37;;;0.70;;
70433;SDS011;57876;47.792;12.960;2022-09-21T06:56:47;3.20;;;0.68;;
70433;SDS011;57876;47.792;12.960;2022-09-21T06:59:11;3.77;;;0.70;;
70433;SDS011;57876;47.792;12.960;2022-09-21T07:01:36;3.50;;;0.67;;
70433;SDS011;57876;47.792;12.960;2022-09-21T07:04:00;3.00;;;0.67;;
70433;SDS011;57876;47.792;12.960;2022-09-21T07:06:25;3.47;;;0.60;;
70433;SDS011;57876;47.792;12.960;2022-09-21T07:08:52;2.83;;;0.50;;
70433;SDS011;57876;47.792;12.960;2022-09-21T07:11:17;3.72;;;0.70;;
70433;SDS011;57876;47.792;12.960;2022-09-21T07:13:42;3.57;;;0.60;;
70433;SDS011;57876;47.792;12.960;2022-09-21T07:16:07;2.97;;;0.55;;
70433;SDS011;57876;47.792;12.960;2022-09-21T07:18:33;3.22;;;0.70;;
70433;SDS011;57876;47.792;12.960;2022-09-21T07:20:57;3.43;;;0.63;;
70433;SDS011;57876;47.792;12.960;2022-09-21T07:23:22;3.33;;;0.60;;
70433;SDS011;57876;47.792;12.960;2022-09-21T07:25:47;3.47;;;0.53;;
70433;SDS011;57876;47.792;12.960;2022-09-21T07:28:13;3.50;;;0.70;;
70433;SDS011;57876;47.792;12.960;2022-09-21T07:30:38;3.33;;;0.67;;
70433;SDS011;57876;47.792;12.960;2022-09-21T07:33:04;3.33;;;0.50;;
70433;SDS011;57876;47.792;12.960;2022-09-21T07:35:28;3.15;;;0.65;;
70433;SDS011;57876;47.792;12.960;2022-09-21T07:37:53;2.43;;;0.50;;
70433;SDS011;57876;47.792;12.960;2022-09-21T07:40:19;2.75;;;0.47;;
70433;SDS011;57876;47.792;12.960;2022-09-21T07:42:44;3.17;;;0.60;;
70433;SDS011;57876;47.792;12.960;2022-09-21T07:45:08;2.70;;;0.60;;
70433;SDS011;57876;47.792;12.960;2022-09-21T07:47:33;3.58;;;0.80;;
70433;SDS011;57876;47.792;12.960;2022-09-21T07:49:57;3.23;;;0.70;;
70433;SDS011;57876;47.792;12.960;2022-09-21T07:52:22;3.67;;;0.60;;
70433;SDS011;57876;47.792;12.960;2022-09-21T07:54:46;3.70;;;0.77;;
70433;SDS011;57876;47.792;12.960;2022-09-21T07:57:11;2.90;;;0.60;;
70433;SDS011;57876;47.792;12.960;2022-09-21T07:59:53;3.40;;;0.70;;
70433;SDS011;57876;47.792;12.960;2022-09-21T08:02:21;2.90;;;0.52;;
70433;SDS011;57876;47.792;12.960;2022-09-21T08:04:45;3.33;;;0.60;;
70433;SDS011;57876;47.792;12.960;2022-09-21T08:07:09;3.50;;;0.70;;
70433;SDS011;57876;47.792;12.960;2022-09-21T08:09:34;3.13;;;0.70;;
70433;SDS011;57876;47.792;12.960;2022-09-21T08:11:58;3.10;;;0.60;;
70433;SDS011;57876;47.792;12.960;2022-09-21T08:14:24;3.67;;;0.68;;
70433;SDS011;57876;47.792;12.960;2022-09-21T08:16:48;3.70;;;0.70;;
70433;SDS011;57876;47.792;12.960;2022-09-21T08:19:13;2.83;;;0.50;;
70433;SDS011;57876;47.792;12.960;2022-09-21T08:21:37;3.15;;;0.60;;
70433;SDS011;57876;47.792;12.960;2022-09-21T08:24:02;3.07;;;0.70;;
70433;SDS011;57876;47.792;12.960;2022-09-21T08:26:26;2.67;;;0.50;;
70433;SDS011;57876;47.792;12.960;2022-09-21T08:28:51;3.00;;;0.60;;
70433;SDS011;57876;47.792;12.960;2022-09-21T08:31:19;3.20;;;0.70;;
70433;SDS011;57876;47.792;12.960;2022-09-21T08:33:45;3.25;;;0.60;;
70433;SDS011;57876;47.792;12.960;2022-09-21T08:36:10;3.43;;;0.60;;
70433;SDS011;57876;47.792;12.960;2022-09-21T08:38:35;5.88;;;0.68;;
70433;SDS011;57876;47.792;12.960;2022-09-21T08:41:01;3.27;;;0.70;;
70433;SDS011;57876;47.792;12.960;2022-09-21T08:43:41;3.05;;;0.63;;
70433;SDS011;57876;47.792;12.960;2022-09-21T08:46:17;3.03;;;0.60;;
70433;SDS011;57876;47.792;12.960;2022-09-21T08:48:49;3.10;;;0.70;;
70433;SDS011;57876;47.792;12.960;2022-09-21T08:51:40;3.30;;;0.60;;
70433;SDS011;57876;47.792;12.960;2022-09-21T08:54:22;3.13;;;0.60;;
70433;SDS011;57876;47.792;12.960;2022-09-21T08:56:48;3.80;;;0.70;;
70433;SDS011;57876;47.792;12.960;2022-09-21T08:59:13;3.92;;;0.75;;
70433;SDS011;57876;47.792;12.960;2022-09-21T09:02:00;2.88;;;0.60;;
70433;SDS011;57876;47.792;12.960;2022-09-21T09:15:36;3.57;;;0.73;;
70433;SDS011;57876;47.792;12.960;2022-09-21T09:18:27;3.63;;;0.60;;
70433;SDS011;57876;47.792;12.960;2022-09-21T09:20:56;3.88;;;0.70;;
70433;SDS011;57876;47.792;12.960;2022-09-21T09:23:26;3.80;;;0.70;;
70433;SDS011;57876;47.792;12.960;2022-09-21T09:25:58;3.88;;;0.60;;
70433;SDS011;57876;47.792;12.960;2022-09-21T09:31:15;3.95;;;0.80;;
70433;SDS011;57876;47.792;12.960;2022-09-21T09:36:21;3.27;;;0.70;;
70433;SDS011;57876;47.792;12.960;2022-09-21T09:38:54;3.00;;;0.70;;
70433;SDS011;57876;47.792;12.960;2022-09-21T09:49:37;3.80;;;0.70;;
70433;SDS011;57876;47.792;12.960;2022-09-21T09:52:04;5.30;;;0.55;;
70433;SDS011;57876;47.792;12.960;2022-09-21T09:54:34;6.18;;;0.70;;
70433;SDS011;57876;47.792;12.960;2022-09-21T09:56:59;3.45;;;0.60;;
70433;SDS011;57876;47.792;12.960;2022-09-21T10:01:59;3.53;;;0.60;;
70433;SDS011;57876;47.792;12.960;2022-09-21T10:04:25;3.65;;;0.70;;
70433;SDS011;57876;47.792;12.960;2022-09-21T10:06:51;4.72;;;0.70;;
70433;SDS011;57876;47.792;12.960;2022-09-21T10:11:46;3.45;;;0.60;;
70433;SDS011;57876;47.792;12.960;2022-09-21T10:14:13;4.68;;;0.60;;
70433;SDS011;57876;47.792;12.960;2022-09-21T10:16:42;4.60;;;0.70;;
70433;SDS011;57876;47.792;12.960;2022-09-21T10:19:12;2.67;;;0.50;;
70433;SDS011;57876;47.792;12.960;2022-09-21T10:21:40;3.55;;;0.85;;
70433;SDS011;57876;47.792;12.960;2022-09-21T10:24:18;3.97;;;0.60;;
70433;SDS011;57876;47.792;12.960;2022-09-21T10:26:53;4.60;;;0.60;;
70433;SDS011;57876;47.792;12.960;2022-09-21T10:31:55;3.17;;;0.70;;
70433;SDS011;57876;47.792;12.960;2022-09-21T10:34:29;3.55;;;0.60;;
70433;SDS011;57876;47.792;12.960;2022-09-21T10:36:56;4.38;;;0.75;;
70433;SDS011;57876;47.792;12.960;2022-09-21T10:39:34;3.08;;;0.70;;
70433;SDS011;57876;47.792;12.960;2022-09-21T10:42:11;2.88;;;0.60;;
70433;SDS011;57876;47.792;12.960;2022-09-21T10:44:40;3.20;;;0.50;;
70433;SDS011;57876;47.792;12.960;2022-09-21T10:49:58;3.80;;;0.70;;
70433;SDS011;57876;47.792;12.960;2022-09-21T10:52:37;3.63;;;0.80;;
70433;SDS011;57876;47.792;12.960;2022-09-21T10:55:14;2.92;;;0.55;;
70433;SDS011;57876;47.792;12.960;2022-09-21T10:57:43;2.97;;;0.50;;
70433;SDS011;57876;47.792;12.960;2022-09-21T11:02:52;4.63;;;0.70;;
70433;SDS011;57876;47.792;12.960;2022-09-21T11:13:32;3.28;;;0.73;;
70433;SDS011;57876;47.792;12.960;2022-09-21T11:19:10;3.75;;;0.65;;
70433;SDS011;57876;47.792;12.960;2022-09-21T11:27:41;3.15;;;0.52;;
70433;SDS011;57876;47.792;12.960;2022-09-21T11:30:12;3.50;;;0.77;;
70433;SDS011;57876;47.792;12.960;2022-09-21T11:40:49;4.03;;;0.80;;
70433;SDS011;57876;47.792;12.960;2022-09-21T11:46:35;4.38;;;0.90;;
70433;SDS011;57876;47.792;12.960;2022-09-21T12:05:23;4.07;;;0.97;;
70433;SDS011;57876;47.792;12.960;2022-09-21T12:11:16;3.88;;;0.90;;
70433;SDS011;57876;47.792;12.960;2022-09-21T12:22:05;5.57;;;0.90;;
70433;SDS011;57876;47.792;12.960;2022-09-21T12:24:35;4.00;;;0.90;;
70433;SDS011;57876;47.792;12.960;2022-09-21T12:27:25;4.00;;;0.85;;
70433;SDS011;57876;47.792;12.960;2022-09-21T12:30:01;4.25;;;1.00;;
70433;SDS011;57876;47.792;12.960;2022-09-21T12:32:46;3.80;;;0.80;;
70433;SDS011;57876;47.792;12.960;2022-09-21T12:35:16;3.78;;;0.70;;
70433;SDS011;57876;47.792;12.960;2022-09-21T12:38:00;3.85;;;0.90;;
70433;SDS011;57876;47.792;12.960;2022-09-21T12:40:36;3.78;;;0.90;;
70433;SDS011;57876;47.792;12.960;2022-09-21T12:43:05;3.90;;;0.90;;
70433;SDS011;57876;47.792;12.960;2022-09-21T12:46:01;3.63;;;0.80;;
70433;SDS011;57876;47.792;12.960;2022-09-21T12:48:33;4.00;;;1.00;;
70433;SDS011;57876;47.792;12.960;2022-09-21T12:53:40;4.60;;;1.10;;
70433;SDS011;57876;47.792;12.960;2022-09-21T13:05:09;3.83;;;0.80;;
70433;SDS011;57876;47.792;12.960;2022-09-21T13:12:52;4.00;;;0.80;;
70433;SDS011;57876;47.792;12.960;2022-09-21T13:15:23;3.60;;;0.70;;
70433;SDS011;57876;47.792;12.960;2022-09-21T13:17:56;3.45;;;0.70;;
70433;SDS011;57876;47.792;12.960;2022-09-21T13:20:22;4.13;;;1.00;;
70433;SDS011;57876;47.792;12.960;2022-09-21T13:22:47;4.10;;;1.00;;
70433;SDS011;57876;47.792;12.960;2022-09-21T13:30:43;3.90;;;0.90;;
70433;SDS011;57876;47.792;12.960;2022-09-21T13:33:28;3.70;;;0.70;;
70433;SDS011;57876;47.792;12.960;2022-09-21T13:38:26;3.55;;;0.90;;
70433;SDS011;57876;47.792;12.960;2022-09-21T13:41:05;3.05;;;0.65;;
70433;SDS011;57876;47.792;12.960;2022-09-21T13:48:58;3.75;;;0.70;;
70433;SDS011;57876;47.792;12.960;2022-09-21T13:51:25;4.25;;;0.80;;
70433;SDS011;57876;47.792;12.960;2022-09-21T13:53:54;4.07;;;0.70;;
70433;SDS011;57876;47.792;12.960;2022-09-21T13:56:23;3.95;;;1.00;;
70433;SDS011;57876;47.792;12.960;2022-09-21T13:58:49;4.07;;;0.80;;
70433;SDS011;57876;47.792;12.960;2022-09-21T14:01:34;4.18;;;0.90;;
70433;SDS011;57876;47.792;12.960;2022-09-21T14:04:01;3.80;;;0.80;;
70433;SDS011;57876;47.792;12.960;2022-09-21T14:06:31;3.42;;;0.80;;
70433;SDS011;57876;47.792;12.960;2022-09-21T14:09:05;3.80;;;0.80;;
70433;SDS011;57876;47.792;12.960;2022-09-21T14:18:56;3.78;;;0.82;;
70433;SDS011;57876;47.792;12.960;2022-09-21T14:21:20;3.83;;;0.80;;
70433;SDS011;57876;47.792;12.960;2022-09-21T14:26:35;3.50;;;0.70;;
70433;SDS011;57876;47.792;12.960;2022-09-21T14:31:58;3.20;;;0.65;;
70433;SDS011;57876;47.792;12.960;2022-09-21T14:34:34;3.30;;;0.70;;
70433;SDS011;57876;47.792;12.960;2022-09-21T14:37:03;3.83;;;0.70;;
70433;SDS011;57876;47.792;12.960;2022-09-21T14:39:39;3.20;;;0.68;;
70433;SDS011;57876;47.792;12.960;2022-09-21T14:42:17;3.33;;;0.65;;
70433;SDS011;57876;47.792;12.960;2022-09-21T14:44:46;3.70;;;0.82;;
70433;SDS011;57876;47.792;12.960;2022-09-21T14:52:28;3.30;;;0.77;;
70433;SDS011;57876;47.792;12.960;2022-09-21T15:00:43;4.27;;;0.80;;
70433;SDS011;57876;47.792;12.960;2022-09-21T15:12:10;3.47;;;0.75;;
70433;SDS011;57876;47.792;12.960;2022-09-21T15:14:40;3.13;;;0.70;;
70433;SDS011;57876;47.792;12.960;2022-09-21T15:17:27;3.78;;;0.80;;
70433;SDS011;57876;47.792;12.960;2022-09-21T15:19:58;3.75;;;0.75;;
70433;SDS011;57876;47.792;12.960;2022-09-21T15:22:23;3.45;;;0.60;;
70433;SDS011;57876;47.792;12.960;2022-09-21T15:24:51;3.67;;;0.80;;
70433;SDS011;57876;47.792;12.960;2022-09-21T15:27:21;3.30;;;0.67;;
70433;SDS011;57876;47.792;12.960;2022-09-21T15:29:48;3.38;;;0.60;;
70433;SDS011;57876;47.792;12.960;2022-09-21T15:34:59;2.92;;;0.60;;
70433;SDS011;57876;47.792;12.960;2022-09-21T15:37:25;3.38;;;0.70;;
70433;SDS011;57876;47.792;12.960;2022-09-21T15:39:57;3.27;;;0.70;;
70433;SDS011;57876;47.792;12.960;2022-09-21T15:42:24;3.08;;;0.60;;
70433;SDS011;57876;47.792;12.960;2022-09-21T15:44:48;3.07;;;0.67;;
70433;SDS011;57876;47.792;12.960;2022-09-21T15:47:21;3.08;;;0.60;;
70433;SDS011;57876;47.792;12.960;2022-09-21T15:49:46;3.25;;;0.60;;
70433;SDS011;57876;47.792;12.960;2022-09-21T15:52:31;3.23;;;0.70;;
70433;SDS011;57876;47.792;12.960;2022-09-21T15:55:01;3.38;;;0.70;;
70433;SDS011;57876;47.792;12.960;2022-09-21T15:57:37;2.78;;;0.60;;
70433;SDS011;57876;47.792;12.960;2022-09-21T16:00:06;2.80;;;0.50;;
70433;SDS011;57876;47.792;12.960;2022-09-21T16:02:48;3.05;;;0.57;;
70433;SDS011;57876;47.792;12.960;2022-09-21T16:05:31;3.07;;;0.60;;
70433;SDS011;57876;47.792;12.960;2022-09-21T16:08:16;3.63;;;0.77;;
70433;SDS011;57876;47.792;12.960;2022-09-21T16:11:09;3.08;;;0.68;;
70433;SDS011;57876;47.792;12.960;2022-09-21T16:13:34;2.80;;;0.55;;
70433;SDS011;57876;47.792;12.960;2022-09-21T16:16:17;3.53;;;0.70;;
70433;SDS011;57876;47.792;12.960;2022-09-21T16:18:48;3.70;;;0.70;;
70433;SDS011;57876;47.792;12.960;2022-09-21T16:21:21;3.13;;;0.52;;
70433;SDS011;57876;47.792;12.960;2022-09-21T16:23:49;2.97;;;0.60;;
70433;SDS011;57876;47.792;12.960;2022-09-21T16:26:18;3.30;;;0.60;;
70433;SDS011;57876;47.792;12.960;2022-09-21T16:28:56;2.67;;;0.52;;
70433;SDS011;57876;47.792;12.960;2022-09-21T16:31:39;3.45;;;0.70;;
70433;SDS011;57876;47.792;12.960;2022-09-21T16:34:09;3.13;;;0.70;;
70433;SDS011;57876;47.792;12.960;2022-09-21T16:36:47;3.47;;;0.70;;
70433;SDS011;57876;47.792;12.960;2022-09-21T16:39:18;3.17;;;0.65;;
70433;SDS011;57876;47.792;12.960;2022-09-21T16:41:44;2.93;;;0.60;;
70433;SDS011;57876;47.792;12.960;2022-09-21T16:44:14;3.30;;;0.57;;
70433;SDS011;57876;47.792;12.960;2022-09-21T16:46:44;3.03;;;0.70;;
70433;SDS011;57876;47.792;12.960;2022-09-21T16:49:10;3.30;;;0.70;;
70433;SDS011;57876;47.792;12.960;2022-09-21T16:51:38;3.47;;;0.60;;
70433;SDS011;57876;47.792;12.960;2022-09-21T16:54:02;3.07;;;0.60;;
70433;SDS011;57876;47.792;12.960;2022-09-21T16:56:27;2.90;;;0.60;;
70433;SDS011;57876;47.792;12.960;2022-09-21T16:58:51;3.47;;;0.70;;
70433;SDS011;57876;47.792;12.960;2022-09-21T17:01:17;2.95;;;0.60;;
70433;SDS011;57876;47.792;12.960;2022-09-21T17:03:43;3.57;;;0.70;;
70433;SDS011;57876;47.792;12.960;2022-09-21T17:08:40;3.22;;;0.70;;
70433;SDS011;57876;47.792;12.960;2022-09-21T17:11:05;2.77;;;0.53;;
70433;SDS011;57876;47.792;12.960;2022-09-21T17:13:29;3.80;;;0.73;;
70433;SDS011;57876;47.792;12.960;2022-09-21T17:15:54;3.25;;;0.52;;
70433;SDS011;57876;47.792;12.960;2022-09-21T17:18:19;2.73;;;0.60;;
70433;SDS011;57876;47.792;12.960;2022-09-21T17:20:43;3.10;;;0.68;;
70433;SDS011;57876;47.792;12.960;2022-09-21T17:23:08;3.50;;;0.67;;
70433;SDS011;57876;47.792;12.960;2022-09-21T17:25:33;3.53;;;0.70;;
70433;SDS011;57876;47.792;12.960;2022-09-21T17:27:59;3.55;;;0.88;;
70433;SDS011;57876;47.792;12.960;2022-09-21T17:30:28;3.00;;;0.50;;
70433;SDS011;57876;47.792;12.960;2022-09-21T17:32:53;3.00;;;0.52;;
70433;SDS011;57876;47.792;12.960;2022-09-21T17:35:24;3.30;;;0.70;;
70433;SDS011;57876;47.792;12.960;2022-09-21T17:37:49;3.30;;;0.70;;
70433;SDS011;57876;47.792;12.960;2022-09-21T17:40:14;3.37;;;0.60;;
70433;SDS011;57876;47.792;12.960;2022-09-21T17:42:39;3.13;;;0.70;;
70433;SDS011;57876;47.792;12.960;2022-09-21T17:45:13;2.70;;;0.50;;
70433;SDS011;57876;47.792;12.960;2022-09-21T17:47:43;2.92;;;0.60;;
70433;SDS011;57876;47.792;12.960;2022-09-21T17:52:35;3.03;;;0.60;;
70433;SDS011;57876;47.792;12.960;2022-09-21T17:55:18;2.88;;;0.50;;
70433;SDS011;57876;47.792;12.960;2022-09-21T17:57:46;4.07;;;0.70;;
70433;SDS011;57876;47.792;12.960;2022-09-21T18:00:44;2.97;;;0.60;;
70433;SDS011;57876;47.792;12.960;2022-09-21T18:03:21;3.47;;;0.60;;
70433;SDS011;57876;47.792;12.960;2022-09-21T18:05:48;2.63;;;0.43;;
70433;SDS011;57876;47.792;12.960;2022-09-21T18:08:13;3.08;;;0.60;;
70433;SDS011;57876;47.792;12.960;2022-09-21T18:10:38;3.17;;;0.67;;
70433;SDS011;57876;47.792;12.960;2022-09-21T18:13:23;3.10;;;0.60;;
70433;SDS011;57876;47.792;12.960;2022-09-21T18:16:14;2.90;;;0.55;;